Campanya Meteocatpedra
Centenari de l'SMC: 100 anys mirant el cel

Dades de l'estació automàtica el Canós

?
?

Resum diari

22:00 TU
Dades diàries de l'estació meteorològica
Temperatura mitjana 17.3 °C
Temperatura màxima 24.0 °C 15:11 TU
Temperatura mínima 11.7 °C 6:08 TU
Humitat relativa mitjana 59%
Precipitació acumulada 0.0 mm
Ratxa màxima del vent (2 m) 32.0 km/h - 264º 15:59 TU
Irradiació solar global 20.3 MJ/m2

El tram horari està expressat en Temps Universal (TU). Cal sumar una hora en horari d'hivern i dues en horari d'estiu per passar a l'hora oficial.

el Canós

Metadades estació meteorològica
Municipi Els Plans de Sió
Comarca Segarra
Altitud 429 m
Data alta 22.10.1988
Estat actual Operativa
Dades de període
Període
TU
TM
°C
TX
°C
TN
°C
HRM
%
PPT
mm
VVM (2 m)
km/h
DVM (2 m)
graus
VVX (2 m)
km/h
RS
W/m2
00:00 - 00:30 15.5 15.6 15.3 70 0.0 2.5 205 5.0 0
00:30 - 01:00 15.4 15.5 15.2 70 0.0 3.6 207 9.4 0
01:00 - 01:30 14.9 15.2 14.5 73 0.0 6.1 231 11.9 0
01:30 - 02:00 14.4 14.5 14.3 75 0.0 3.6 234 6.5 0
02:00 - 02:30 14.0 14.3 13.7 76 0.0 2.5 243 4.7 0
02:30 - 03:00 13.7 13.9 13.5 77 0.0 5.0 247 7.6 0
03:00 - 03:30 13.4 13.6 13.1 79 0.0 5.8 243 10.4 0
03:30 - 04:00 12.9 13.2 12.8 81 0.0 3.2 259 6.5 0
04:00 - 04:30 12.8 13.0 12.6 81 0.0 5.0 247 11.2 0
04:30 - 05:00 12.5 12.6 12.4 82 0.0 4.0 253 7.6 0
05:00 - 05:30 12.4 12.5 12.1 83 0.0 3.6 250 6.8 0
05:30 - 06:00 11.9 12.0 11.8 85 0.0 3.2 252 5.4 3
06:00 - 06:30 11.9 12.0 11.7 87 0.0 2.5 222 5.4 17
06:30 - 07:00 12.1 12.5 11.9 88 0.0 3.6 224 6.1 57
07:00 - 07:30 13.6 14.5 12.6 81 0.0 7.6 254 14.8 230
07:30 - 08:00 14.9 15.4 14.4 73 0.0 12.2 259 23.4 343
08:00 - 08:30 16.0 16.4 15.3 69 0.0 12.6 265 23.8 443
08:30 - 09:00 16.7 17.5 16.0 66 0.0 13.7 260 26.6 553
09:00 - 09:30 17.1 17.7 16.6 64 0.0 11.9 270 24.1 473
09:30 - 10:00 17.8 18.4 17.3 63 0.0 13.0 271 25.6 603
10:00 - 10:30 18.8 19.3 18.3 59 0.0 13.7 268 23.8 747
10:30 - 11:00 19.3 19.8 18.9 57 0.0 14.4 269 27.7 769
11:00 - 11:30 20.0 20.3 19.7 54 0.0 15.1 264 30.2 799
11:30 - 12:00 21.1 21.5 20.5 50 0.0 11.9 286 25.2 820
12:00 - 12:30 21.6 22.0 21.1 47 0.0 13.0 281 25.6 778
12:30 - 13:00 22.2 23.0 21.5 45 0.0 11.5 284 25.6 761
13:00 - 13:30 22.8 23.4 22.1 45 0.0 10.8 281 30.2 755
13:30 - 14:00 23.3 23.5 22.8 40 0.0 12.2 285 29.2 737
14:00 - 14:30 23.5 23.7 23.0 38 0.0 12.6 275 28.4 628
14:30 - 15:00 23.6 23.9 23.2 34 0.0 17.3 250 29.2 553
15:00 - 15:30 23.6 24.0 23.2 29 0.0 18.0 256 29.5 461
15:30 - 16:00 23.2 23.6 22.8 28 0.0 16.9 270 32.0 370
16:00 - 16:30 22.5 23.2 21.9 28 0.0 17.6 262 31.3 240
16:30 - 17:00 21.8 22.6 21.1 32 0.0 16.6 265 28.8 146
17:00 - 17:30 20.7 21.5 20.2 37 0.0 7.9 273 22.7 53
17:30 - 18:00 19.6 20.1 19.0 42 0.0 10.4 247 21.2 9
18:00 - 18:30 18.7 19.0 18.5 44 0.0 9.4 261 17.3 0
18:30 - 19:00 17.9 18.5 17.4 45 0.0 7.2 276 15.5 0
19:00 - 19:30 17.3 17.5 16.9 45 0.0 8.3 243 16.2 0
19:30 - 20:00 16.3 16.8 16.0 48 0.0 2.5 128 7.9 0
20:00 - 20:30 16.3 16.5 15.7 48 0.0 2.5 184 6.1 0
20:30 - 21:00 15.6 16.0 15.1 52 0.0 2.2 201 7.9 0
21:00 - 21:30 15.4 15.6 15.3 54 0.0 6.8 217 13.0 0
21:30 - 22:00 15.2 15.3 15.1 56 0.0 2.5 171 9.0 0
22:00 - 22:30 14.0 15.0 13.4 61 0.0 1.1 123 5.0 0

Les dades en taronja només han passat un control de qualitat automàtic. Resta pendent la seva validació definitiva.